Cielo Di Casablanca — CNA4477 — position and weather

sailwx.info

Track history (hours):
 
Tides and Currents Weather Stations Pressure Air Temp Water Temp Dewpoint Dewpoint Depression Visibility Wind Speed Wind Dir Waves Ship Positions

Cielo Di Casablanca

Last reported at 2018-May-22 18:32 UTC. Time now 2018-May-22 19:34 UTC.
Position N 35°58' W 005°36'.

Length 134 m; draft 7.9 m.

Type: Ship (hazmat cat A). MMSI: 242559000.

Date/timePositionNaut miles runAvg speedWind from/ knotsBaromVisibWave heightAir tempDewpointWater temp
2018-May-22 18:32N 35°58' W 005°36'0 9.8
2018-May-22 18:30N 35°58' W 005°36'5 9.4
2018-May-22 18:00N 35°59' W 005°30'4 9.2
2018-May-22 17:30N 36°01' W 005°25'5 9.9
2018-May-22 17:00N 36°06' W 005°23'2 3.6
2018-May-22 16:26N 36°08' W 005°22'0 0.3
2018-May-22 15:53N 36°07' W 005°22'0 0.1
2018-May-22 15:29N 36°07' W 005°22'0 0.0
2018-May-22 14:59N 36°07' W 005°22'0 0.0
2018-May-22 14:26N 36°07' W 005°22'3 0.1
2018-May-21 18:24N 36°08' W 005°25'1 2.6
2018-May-21 18:00N 36°09' W 005°25'2 5.0
2018-May-21 17:30N 36°06' W 005°23'4 7.7
2018-May-21 17:00N 36°03' W 005°21'1 1.5
2018-May-21 16:30N 36°03' W 005°21'1 2.7
2018-May-21 16:00N 36°02' W 005°23'510.4
2018-May-21 15:31N 35°58' W 005°26'5 0.4
2018-May-21 03:40N 35°54' W 005°29'0 0.9
2018-May-21 03:30N 35°54' W 005°30'2 4.3
2018-May-21 02:59N 35°55' W 005°32'2 3.8
2018-May-21 02:30N 35°54' W 005°34'1 1.3
2018-May-21 02:00N 35°55' W 005°34'4 4.0
2018-May-21 01:04N 35°55' W 005°38'0 5.6
2018-May-21 00:59N 35°55' W 005°39'4 9.1
2018-May-21 00:30N 35°56' W 005°44'610.9
2018-May-20 23:56N 35°55' W 005°52'  
2018-May-13 08:53N 35°58' W 005°34'3 9.1
2018-May-13 08:30N 35°59' W 005°30'4 8.4
2018-May-13 08:00N 36°01' W 005°25'5 9.2
2018-May-13 07:30N 36°05' W 005°24'3 5.0
2018-May-13 07:00N 36°08' W 005°25'0 0.0
2018-May-13 06:30N 36°08' W 005°25'0 0.0
2018-May-13 06:00N 36°08' W 005°25'0 0.0
2018-May-13 05:30N 36°08' W 005°25'0 0.0
2018-May-13 05:00N 36°08' W 005°25'0 0.0
2018-May-13 04:30N 36°08' W 005°25'0 0.0
2018-May-13 04:00N 36°08' W 005°25'0 0.0
2018-May-13 03:30N 36°08' W 005°25'0 0.0
2018-May-13 03:00N 36°08' W 005°25'0 0.0
2018-May-13 02:30N 36°08' W 005°25'0 0.0
2018-May-13 02:00N 36°08' W 005°25'0 0.0
2018-May-13 01:30N 36°08' W 005°25'0 0.0
2018-May-13 00:57N 36°08' W 005°25'0 0.0
2018-May-13 00:27N 36°08' W 005°25'0 0.0
2018-May-13 00:00N 36°08' W 005°25'0 0.0
2018-May-12 23:27N 36°08' W 005°25'0 0.0
2018-May-12 23:00N 36°08' W 005°25'0 0.0
2018-May-12 22:30N 36°08' W 005°25'0 0.0
2018-May-12 22:00N 36°08' W 005°25'0 0.0
2018-May-12 21:30N 36°08' W 005°25'0 0.0
2018-May-12 21:00N 36°08' W 005°25'0 0.0
2018-May-12 20:21N 36°08' W 005°25'0 0.0
2018-May-12 20:00N 36°08' W 005°25'0 0.0
2018-May-12 19:30N 36°08' W 005°25'0 0.0
2018-May-12 19:00N 36°08' W 005°25'  
Track history (hours):
 
Tides and Currents Weather Stations Pressure Air Temp Water Temp Dewpoint Dewpoint Depression Visibility Wind Speed Wind Dir Waves Ship Positions

Cielo Di Casablanca

Last reported at 2018-May-22 18:32 UTC. Time now 2018-May-22 19:34 UTC.
Position N 35°58' W 005°36'.

Length 134 m; draft 7.9 m.

Type: Ship (hazmat cat A). MMSI: 242559000.

Date/timePositionNaut miles runAvg speedWind from/ knotsBaromVisibWave heightAir tempDewpointWater temp
2018-May-22 18:32N 35°58' W 005°36'0 9.8
2018-May-22 18:30N 35°58' W 005°36'5 9.4
2018-May-22 18:00N 35°59' W 005°30'4 9.2
2018-May-22 17:30N 36°01' W 005°25'5 9.9
2018-May-22 17:00N 36°06' W 005°23'2 3.6
2018-May-22 16:26N 36°08' W 005°22'0 0.3
2018-May-22 15:53N 36°07' W 005°22'0 0.1
2018-May-22 15:29N 36°07' W 005°22'0 0.0
2018-May-22 14:59N 36°07' W 005°22'0 0.0
2018-May-22 14:26N 36°07' W 005°22'3 0.1
2018-May-21 18:24N 36°08' W 005°25'1 2.6
2018-May-21 18:00N 36°09' W 005°25'2 5.0
2018-May-21 17:30N 36°06' W 005°23'4 7.7
2018-May-21 17:00N 36°03' W 005°21'1 1.5
2018-May-21 16:30N 36°03' W 005°21'1 2.7
2018-May-21 16:00N 36°02' W 005°23'510.4
2018-May-21 15:31N 35°58' W 005°26'5 0.4
2018-May-21 03:40N 35°54' W 005°29'0 0.9
2018-May-21 03:30N 35°54' W 005°30'2 4.3
2018-May-21 02:59N 35°55' W 005°32'2 3.8
2018-May-21 02:30N 35°54' W 005°34'1 1.3
2018-May-21 02:00N 35°55' W 005°34'4 4.0
2018-May-21 01:04N 35°55' W 005°38'0 5.6
2018-May-21 00:59N 35°55' W 005°39'4 9.1
2018-May-21 00:30N 35°56' W 005°44'610.9
2018-May-20 23:56N 35°55' W 005°52'  
2018-May-13 08:53N 35°58' W 005°34'3 9.1
2018-May-13 08:30N 35°59' W 005°30'4 8.4
2018-May-13 08:00N 36°01' W 005°25'5 9.2
2018-May-13 07:30N 36°05' W 005°24'3 5.0
2018-May-13 07:00N 36°08' W 005°25'0 0.0
2018-May-13 06:30N 36°08' W 005°25'0 0.0
2018-May-13 06:00N 36°08' W 005°25'0 0.0
2018-May-13 05:30N 36°08' W 005°25'0 0.0
2018-May-13 05:00N 36°08' W 005°25'0 0.0
2018-May-13 04:30N 36°08' W 005°25'0 0.0
2018-May-13 04:00N 36°08' W 005°25'0 0.0
2018-May-13 03:30N 36°08' W 005°25'0 0.0
2018-May-13 03:00N 36°08' W 005°25'0 0.0
2018-May-13 02:30N 36°08' W 005°25'0 0.0
2018-May-13 02:00N 36°08' W 005°25'0 0.0
2018-May-13 01:30N 36°08' W 005°25'0 0.0
2018-May-13 00:57N 36°08' W 005°25'0 0.0
2018-May-13 00:27N 36°08' W 005°25'0 0.0
2018-May-13 00:00N 36°08' W 005°25'0 0.0
2018-May-12 23:27N 36°08' W 005°25'0 0.0
2018-May-12 23:00N 36°08' W 005°25'0 0.0
2018-May-12 22:30N 36°08' W 005°25'0 0.0
2018-May-12 22:00N 36°08' W 005°25'0 0.0
2018-May-12 21:30N 36°08' W 005°25'0 0.0
2018-May-12 21:00N 36°08' W 005°25'0 0.0
2018-May-12 20:21N 36°08' W 005°25'0 0.0
2018-May-12 20:00N 36°08' W 005°25'0 0.0
2018-May-12 19:30N 36°08' W 005°25'0 0.0
2018-May-12 19:00N 36°08' W 005°25'  

Dump ship's entire track history